Parsabad, Parsabad-Moghan Airport (OITP)

NameParsabad-Moghan Airport
CityParsabad
CountryIran (Islamic Republic of)
ICAOOITP
IATAPFQ
Altitude77 m
CoordinatesGoogle Map
Live Air TrafficLiveATC.net
METAROITP 171300Z 14012KT 9999 SCT030 OVC080 04/01 Q1008
2019-01-17 13:00:00 Wind: Southeast (140°) 6.17 m/s - Visibility: > 10000 m - Temperature: 4 °C - Dew point: 1 °C - Humidity: 81% - Pressure: 1008 hPa
Statistics

The table below shows the detailed information of all flights to/from Parsabad, Parsabad-Moghan Airport (OITP).